Island City, Indiana
Current Conditions -  °F | °C
As of 12:55 AM on Sunday 26 Oct 2014 (Local Time) from KDCY Reporting Station
Clear Clear  
Wind Chill: 59°   Ceiling: Unl
Heat Index: 59°   Visibility: 10mi
Dew Point: 52°   Wind: 5mph
Humidity: 77%   Direction: 290°WNW
Pressure: 29.98"   Gusts: NA
Location:  39.0608°N, 87.1852°W
Report Text: KDCY 260455Z AUTO 29004KT 10SM CLR 15/11 A2998 RMK AO2 T01490110
Loading
Personal Weather Stations






























Interactive Weather Map
Tropical Storm Tracking
New forecast layout! Learn more

10-Day Weather Forecast

Advertisements
Track Severe Weather on mobile